createdAt,value
2022-11-12T00:00:52.203Z,98554.03
2022-11-12T00:03:18.674Z,98554.66
2022-11-12T00:05:45.484Z,98555.47
2022-11-12T00:08:13.946Z,98550.38
2022-11-12T00:10:40.287Z,98544.84
2022-11-12T00:13:06.821Z,98554.34
2022-11-12T00:15:34.309Z,98549.84
2022-11-12T00:18:00.652Z,98544.22
2022-11-12T00:20:28.092Z,98544.13
2022-11-12T00:22:54.426Z,98541.41
2022-11-12T00:25:20.949Z,98544.41
2022-11-12T00:27:49.296Z,98539.19
2022-11-12T00:30:15.839Z,98542.94
2022-11-12T00:32:42.293Z,98540.25
2022-11-12T00:35:12.647Z,98540.34
2022-11-12T00:37:46.105Z,98538.56
2022-11-12T00:40:12.540Z,98528.56
2022-11-12T00:42:38.909Z,98527.47
2022-11-12T00:45:05.522Z,98525.00
2022-11-12T00:47:31.839Z,98525.59
2022-11-12T00:49:58.288Z,98525.94
2022-11-12T00:52:27.814Z,98521.66
2022-11-12T00:54:54.135Z,98518.63
2022-11-12T00:57:20.462Z,98522.69
2022-11-12T00:59:56.962Z,98516.72
2022-11-12T01:02:23.257Z,98520.81
2022-11-12T01:04:54.296Z,98528.75
2022-11-12T01:07:20.646Z,98522.06
2022-11-12T01:09:48.221Z,98524.16
2022-11-12T01:12:14.525Z,98526.47
2022-11-12T01:14:40.950Z,98529.56
2022-11-12T01:17:07.345Z,98522.94
2022-11-12T01:19:33.674Z,98521.66
2022-11-12T01:22:07.921Z,98511.13
2022-11-12T01:24:34.326Z,98506.72
2022-11-12T01:27:00.726Z,98511.31
2022-11-12T01:29:27.025Z,98514.78
2022-11-12T01:31:53.336Z,98508.94
2022-11-12T01:34:19.669Z,98506.84
2022-11-12T01:36:46.038Z,98508.69
2022-11-12T01:39:12.423Z,98504.13
2022-11-12T01:41:39.360Z,98499.13
2022-11-12T01:44:13.551Z,98501.41
2022-11-12T01:46:48.214Z,98509.03
2022-11-12T01:49:19.113Z,98508.81
2022-11-12T01:51:48.151Z,98510.47
2022-11-12T01:54:17.093Z,98507.03
2022-11-12T01:56:43.688Z,98507.81
2022-11-12T01:59:20.168Z,98503.25
2022-11-12T02:01:46.481Z,98511.94
2022-11-12T02:04:13.099Z,98506.63
2022-11-12T02:06:39.908Z,98504.97
2022-11-12T02:09:17.376Z,98512.03
2022-11-12T02:11:44.112Z,98503.91
2022-11-12T02:14:10.729Z,98501.91
2022-11-12T02:16:38.808Z,98500.56
2022-11-12T02:19:06.831Z,98500.38
2022-11-12T02:21:33.484Z,98500.38
2022-11-12T02:24:26.054Z,98500.25
2022-11-12T02:26:54.292Z,98501.19
2022-11-12T02:29:21.285Z,98492.66
2022-11-12T02:31:47.740Z,98502.66
2022-11-12T02:34:14.225Z,98493.66
2022-11-12T02:36:49.508Z,98497.03
2022-11-12T02:39:15.847Z,98496.38
2022-11-12T02:41:42.154Z,98496.19
2022-11-12T02:44:08.509Z,98492.72
2022-11-12T02:46:36.940Z,98495.75
2022-11-12T02:49:03.260Z,98498.47
2022-11-12T02:51:29.568Z,98492.84
2022-11-12T02:53:56.993Z,98491.91
2022-11-12T02:56:23.329Z,98489.19
2022-11-12T02:58:51.511Z,98493.91
2022-11-12T03:01:17.855Z,98499.94
2022-11-12T03:03:46.339Z,98493.66
2022-11-12T03:06:12.667Z,98492.78
2022-11-12T03:08:41.021Z,98488.66
2022-11-12T03:11:11.441Z,98484.47
2022-11-12T03:13:39.342Z,98485.31
2022-11-12T03:16:05.843Z,98493.59
2022-11-12T03:18:32.403Z,98497.16
2022-11-12T03:20:58.772Z,98484.25
2022-11-12T03:23:26.391Z,98489.84
2022-11-12T03:25:55.331Z,98490.16
2022-11-12T03:28:22.145Z,98487.66
2022-11-12T03:30:48.462Z,98493.16
2022-11-12T03:33:15.474Z,98493.53
2022-11-12T03:35:42.030Z,98492.97
2022-11-12T03:38:08.547Z,98497.47
2022-11-12T03:40:36.988Z,98500.81
2022-11-12T03:43:03.406Z,98501.75
2022-11-12T03:45:29.809Z,98491.31
2022-11-12T03:48:02.964Z,98486.53
2022-11-12T03:50:29.813Z,98498.09
2022-11-12T03:52:57.352Z,98496.09
2022-11-12T03:55:29.448Z,98497.03
2022-11-12T03:58:03.673Z,98499.41
2022-11-12T04:00:30.197Z,98495.22
2022-11-12T04:02:56.997Z,98492.19
2022-11-12T04:05:42.123Z,98497.66
2022-11-12T04:08:34.466Z,98494.00
2022-11-12T04:11:02.718Z,98485.06
2022-11-12T04:13:30.237Z,98487.72
2022-11-12T04:16:16.642Z,98495.34
2022-11-12T04:19:04.772Z,98491.41
2022-11-12T04:21:50.904Z,98489.22
2022-11-12T04:24:43.291Z,98481.78
2022-11-12T04:27:15.664Z,98485.19
2022-11-12T04:30:01.363Z,98491.13
2022-11-12T04:32:28.193Z,98484.44
2022-11-12T04:34:54.872Z,98492.84
2022-11-12T04:37:23.669Z,98485.56
2022-11-12T04:39:53.178Z,98484.25
2022-11-12T04:42:44.131Z,98488.09
2022-11-12T04:45:10.872Z,98495.88
2022-11-12T04:47:38.500Z,98490.56
2022-11-12T04:50:06.955Z,98492.91
2022-11-12T04:52:33.374Z,98501.84
2022-11-12T04:55:01.783Z,98500.53
2022-11-12T04:57:28.232Z,98498.47
2022-11-12T04:59:54.776Z,98498.66
2022-11-12T05:02:21.405Z,98501.16
2022-11-12T05:04:50.847Z,98498.13
2022-11-12T05:07:17.668Z,98501.56
2022-11-12T05:09:46.154Z,98495.13
2022-11-12T05:12:12.502Z,98497.88
2022-11-12T05:14:41.999Z,98494.13
2022-11-12T05:17:08.332Z,98489.28
2022-11-12T05:19:35.241Z,98490.31
2022-11-12T05:22:17.524Z,98493.91
2022-11-12T05:24:48.531Z,98492.78
2022-11-12T05:27:21.770Z,98493.50
2022-11-12T05:29:48.131Z,98492.97
2022-11-12T05:32:15.407Z,98494.84
2022-11-12T05:34:42.244Z,98500.91
2022-11-12T05:37:09.744Z,98491.97
2022-11-12T05:39:40.075Z,98494.53
2022-11-12T05:42:13.098Z,98485.34
2022-11-12T05:44:47.383Z,98496.78
2022-11-12T05:47:13.842Z,98489.81
2022-11-12T05:49:40.151Z,98490.25
2022-11-12T05:52:06.544Z,98487.28
2022-11-12T05:54:32.847Z,98487.59
2022-11-12T05:57:05.301Z,98487.69
2022-11-12T05:59:31.622Z,98496.81
2022-11-12T06:01:59.118Z,98499.81
2022-11-12T06:04:26.259Z,98502.84
2022-11-12T06:06:52.656Z,98494.28
2022-11-12T06:09:19.127Z,98501.91
2022-11-12T06:11:45.468Z,98499.88
2022-11-12T06:14:11.886Z,98503.03
2022-11-12T06:16:38.231Z,98505.81
2022-11-12T06:19:05.170Z,98512.34
2022-11-12T06:21:33.528Z,98517.19
2022-11-12T06:24:00.698Z,98522.94
2022-11-12T06:26:29.640Z,98519.97
2022-11-12T06:28:56.286Z,98517.28
2022-11-12T06:31:22.887Z,98525.84
2022-11-12T06:33:49.678Z,98525.94
2022-11-12T06:36:17.626Z,98520.91
2022-11-12T06:38:45.816Z,98527.81
2022-11-12T06:41:14.149Z,98537.34
2022-11-12T06:43:40.991Z,98533.91
2022-11-12T06:46:17.488Z,98533.00
2022-11-12T06:48:43.840Z,98539.69
2022-11-12T06:51:12.489Z,98535.03
2022-11-12T06:53:39.288Z,98540.44
2022-11-12T06:56:06.633Z,98532.25
2022-11-12T06:58:33.644Z,98533.84
2022-11-12T07:01:20.265Z,98539.13
2022-11-12T07:03:56.553Z,98540.78
2022-11-12T07:06:23.073Z,98543.22
2022-11-12T07:08:50.363Z,98534.81
2022-11-12T07:11:17.902Z,98540.97
2022-11-12T07:13:46.059Z,98537.78
2022-11-12T07:16:13.828Z,98534.06
2022-11-12T07:18:40.231Z,98545.06
2022-11-12T07:21:07.311Z,98544.88
2022-11-12T07:23:34.843Z,98541.38
2022-11-12T07:26:04.381Z,98543.97
2022-11-12T07:28:37.798Z,98542.72
2022-11-12T07:31:05.853Z,98538.72
2022-11-12T07:33:33.084Z,98541.72
2022-11-12T07:36:06.928Z,98543.31
2022-11-12T07:38:37.448Z,98547.00
2022-11-12T07:41:22.004Z,98546.13
2022-11-12T07:43:49.116Z,98548.50
2022-11-12T07:46:25.842Z,98549.47
2022-11-12T07:48:52.340Z,98549.56
2022-11-12T07:51:20.162Z,98546.66
2022-11-12T07:53:47.312Z,98544.88
2022-11-12T07:56:16.370Z,98542.09
2022-11-12T07:58:44.819Z,98548.16
2022-11-12T08:01:23.476Z,98538.59
2022-11-12T08:03:52.939Z,98533.88
2022-11-12T08:06:21.608Z,98542.22
2022-11-12T08:08:48.210Z,98530.31
2022-11-12T08:11:27.776Z,98536.47
2022-11-12T08:13:54.415Z,98534.31
2022-11-12T08:16:20.783Z,98531.81
2022-11-12T08:18:47.268Z,98536.66
2022-11-12T08:21:15.306Z,98533.78
2022-11-12T08:23:42.015Z,98534.84
2022-11-12T08:26:11.051Z,98537.22
2022-11-12T08:28:40.607Z,98532.94
2022-11-12T08:31:10.142Z,98541.56
2022-11-12T08:33:37.536Z,98543.09
2022-11-12T08:36:04.995Z,98536.28
2022-11-12T08:38:31.396Z,98532.41
2022-11-12T08:41:17.611Z,98529.09
2022-11-12T08:43:44.088Z,98524.38
2022-11-12T08:46:19.616Z,98524.16
2022-11-12T08:48:46.036Z,98525.00
2022-11-12T08:51:21.533Z,98526.66
2022-11-12T08:53:47.854Z,98529.22
2022-11-12T08:56:14.201Z,98525.59
2022-11-12T08:58:40.556Z,98525.41
2022-11-12T09:01:08.408Z,98527.38
2022-11-12T09:03:34.796Z,98515.38
2022-11-12T09:06:05.203Z,98528.03
2022-11-12T09:08:36.907Z,98528.50
2022-11-12T09:11:11.615Z,98525.78
2022-11-12T09:13:38.018Z,98522.88
2022-11-12T09:16:06.383Z,98525.13
2022-11-12T09:18:33.507Z,98529.53
2022-11-12T09:21:00.826Z,98533.22
2022-11-12T09:23:27.258Z,98526.03
2022-11-12T09:25:54.987Z,98534.75
2022-11-12T09:28:21.323Z,98532.81
2022-11-12T09:30:49.687Z,98537.34
2022-11-12T09:33:20.551Z,98530.16
2022-11-12T09:35:47.555Z,98524.06
2022-11-12T09:38:15.550Z,98524.59
2022-11-12T09:40:42.101Z,98528.34
2022-11-12T09:43:17.070Z,98530.09
2022-11-12T09:45:54.960Z,98523.91
2022-11-12T09:48:34.796Z,98514.50
2022-11-12T09:51:05.864Z,98513.63
2022-11-12T09:53:32.155Z,98513.94
2022-11-12T09:55:58.692Z,98508.34
2022-11-12T09:58:25.850Z,98506.22
2022-11-12T10:00:57.381Z,98508.81
2022-11-12T10:03:23.680Z,98516.53
2022-11-12T10:05:58.418Z,98504.59
2022-11-12T10:08:37.603Z,98505.50
2022-11-12T10:11:25.328Z,98503.84
2022-11-12T10:14:10.509Z,98507.66
2022-11-12T10:16:45.882Z,98497.19
2022-11-12T10:19:12.167Z,98504.00
2022-11-12T10:21:57.352Z,98502.09
2022-11-12T10:24:24.684Z,98495.03
2022-11-12T10:26:52.210Z,98497.50
2022-11-12T10:29:30.842Z,98503.72
2022-11-12T10:31:57.222Z,98496.16
2022-11-12T10:34:24.279Z,98490.81
2022-11-12T10:36:56.650Z,98483.66
2022-11-12T10:39:32.445Z,98486.09
2022-11-12T10:42:02.698Z,98486.97
2022-11-12T10:44:29.027Z,98483.50
2022-11-12T10:47:15.303Z,98473.53
2022-11-12T10:49:41.666Z,98479.31
2022-11-12T10:52:20.593Z,98464.81
2022-11-12T10:54:52.373Z,98464.19
2022-11-12T10:57:24.152Z,98458.25
2022-11-12T11:00:26.208Z,98460.66
2022-11-12T11:02:53.387Z,98447.13
2022-11-12T11:05:32.966Z,98448.06
2022-11-12T11:07:59.449Z,98451.19
2022-11-12T11:10:27.245Z,98442.28
2022-11-12T11:13:10.208Z,98448.84
2022-11-12T11:15:37.827Z,98438.19
2022-11-12T11:18:04.228Z,98433.06
2022-11-12T11:20:33.620Z,98430.28
2022-11-12T11:23:05.468Z,98436.44
2022-11-12T11:25:33.784Z,98435.84
2022-11-12T11:28:19.170Z,98430.34
2022-11-12T11:30:52.001Z,98432.22
2022-11-12T11:33:25.355Z,98427.47
2022-11-12T11:36:09.813Z,98421.94
2022-11-12T11:38:42.261Z,98425.91
2022-11-12T11:41:21.532Z,98415.50
2022-11-12T11:43:58.883Z,98415.06
2022-11-12T11:46:31.322Z,98412.53
2022-11-12T11:49:15.170Z,98417.09
2022-11-12T11:52:00.044Z,98411.03
2022-11-12T11:54:52.492Z,98408.00
2022-11-12T11:57:23.380Z,98397.09
2022-11-12T11:59:52.506Z,98394.34
2022-11-12T12:02:27.995Z,98392.22
2022-11-12T12:05:03.660Z,98386.84
2022-11-12T12:07:50.463Z,98385.59
2022-11-12T12:10:19.545Z,98383.41
2022-11-12T12:12:55.701Z,98383.72
2022-11-12T12:15:31.888Z,98378.16
2022-11-12T12:18:07.802Z,98372.22
2022-11-12T12:20:44.448Z,98378.44
2022-11-12T12:23:25.384Z,98374.13
2022-11-12T12:25:57.506Z,98368.34
2022-11-12T12:28:35.727Z,98363.09
2022-11-12T12:31:05.687Z,98372.31
2022-11-12T12:33:40.004Z,98362.94
2022-11-12T12:36:13.959Z,98360.88
2022-11-12T12:39:06.306Z,98365.31
2022-11-12T12:41:44.276Z,98367.78
2022-11-12T12:44:10.997Z,98359.88
2022-11-12T12:46:46.774Z,98362.25
2022-11-12T12:49:23.684Z,98353.38
2022-11-12T12:51:55.486Z,98352.13
2022-11-12T12:54:37.270Z,98353.38
2022-11-12T12:57:04.184Z,98354.75
2022-11-12T12:59:31.616Z,98348.38
2022-11-12T13:01:58.039Z,98346.03
2022-11-12T13:04:47.507Z,98342.41
2022-11-12T13:07:13.932Z,98341.16
2022-11-12T13:09:41.340Z,98344.63
2022-11-12T13:12:09.321Z,98339.78
2022-11-12T13:14:35.773Z,98335.91
2022-11-12T13:17:08.400Z,98334.38
2022-11-12T13:19:37.513Z,98335.31
2022-11-12T13:22:19.321Z,98331.34
2022-11-12T13:25:05.588Z,98331.19
2022-11-12T13:27:47.079Z,98328.16
2022-11-12T13:30:13.389Z,98337.00
2022-11-12T13:32:52.064Z,98335.50
2022-11-12T13:35:18.645Z,98332.88
2022-11-12T13:38:03.396Z,98334.66
2022-11-12T13:40:29.782Z,98334.94
2022-11-12T13:42:58.961Z,98326.47
2022-11-12T13:45:27.109Z,98328.00
2022-11-12T13:47:53.602Z,98331.09
2022-11-12T13:50:22.182Z,98327.63
2022-11-12T13:52:49.782Z,98333.31
2022-11-12T13:55:19.998Z,98334.69
2022-11-12T13:57:53.678Z,98332.59
2022-11-12T14:00:22.080Z,98335.94
2022-11-12T14:02:58.497Z,98330.81
2022-11-12T14:05:32.196Z,98333.31
2022-11-12T14:08:22.685Z,98331.66
2022-11-12T14:11:09.198Z,98333.03
2022-11-12T14:13:49.910Z,98334.97
2022-11-12T14:16:27.933Z,98335.81
2022-11-12T14:19:13.223Z,98331.25
2022-11-12T14:21:58.707Z,98333.75
2022-11-12T14:24:25.191Z,98326.53
2022-11-12T14:26:51.633Z,98324.34
2022-11-12T14:29:19.366Z,98330.97
2022-11-12T14:31:46.322Z,98323.34
2022-11-12T14:34:19.157Z,98323.06
2022-11-12T14:36:55.869Z,98317.97
2022-11-12T14:39:23.344Z,98317.28
2022-11-12T14:41:51.013Z,98316.03
2022-11-12T14:44:23.342Z,98305.75
2022-11-12T14:46:51.299Z,98306.22
2022-11-12T14:49:42.439Z,98303.19
2022-11-12T14:52:16.984Z,98308.59
2022-11-12T14:55:06.884Z,98304.03
2022-11-12T14:57:33.240Z,98299.06
2022-11-12T14:59:59.690Z,98297.34
2022-11-12T15:02:42.348Z,98302.47
2022-11-12T15:05:16.569Z,98303.50
2022-11-12T15:08:02.500Z,98293.19
2022-11-12T15:10:30.952Z,98302.00
2022-11-12T15:13:04.396Z,98300.94
2022-11-12T15:15:31.047Z,98301.44
2022-11-12T15:18:02.570Z,98301.84
2022-11-12T15:20:28.956Z,98300.00
2022-11-12T15:22:56.329Z,98305.94
2022-11-12T15:25:22.835Z,98297.94
2022-11-12T15:27:49.802Z,98301.00
2022-11-12T15:30:19.038Z,98301.53
2022-11-12T15:32:46.674Z,98308.63
2022-11-12T15:35:25.426Z,98305.81
2022-11-12T15:37:52.147Z,98305.44
2022-11-12T15:40:20.038Z,98313.44
2022-11-12T15:42:46.975Z,98305.22
2022-11-12T15:45:16.065Z,98303.94
2022-11-12T15:47:42.406Z,98306.72
2022-11-12T15:50:15.309Z,98305.63
2022-11-12T15:52:41.831Z,98300.25
2022-11-12T15:55:08.922Z,98298.78
2022-11-12T15:57:38.904Z,98296.28
2022-11-12T16:00:08.683Z,98294.97
2022-11-12T16:02:35.327Z,98299.00
2022-11-12T16:05:01.953Z,98293.09
2022-11-12T16:07:28.402Z,98288.47
2022-11-12T16:09:55.791Z,98290.16
2022-11-12T16:12:22.369Z,98291.94
2022-11-12T16:14:48.762Z,98292.03
2022-11-12T16:17:17.930Z,98294.53
2022-11-12T16:19:44.466Z,98289.53
2022-11-12T16:22:13.663Z,98287.03
2022-11-12T16:24:40.503Z,98295.38
2022-11-12T16:27:09.782Z,98289.78
2022-11-12T16:29:36.243Z,98290.25
2022-11-12T16:32:04.491Z,98287.38
2022-11-12T16:34:30.891Z,98285.03
2022-11-12T16:36:57.848Z,98285.16
2022-11-12T16:39:24.411Z,98282.66
2022-11-12T16:41:50.969Z,98284.56
2022-11-12T16:44:17.310Z,98292.28
2022-11-12T16:46:45.860Z,98290.75
2022-11-12T16:49:13.256Z,98283.50
2022-11-12T16:51:39.582Z,98279.56
2022-11-12T16:54:06.200Z,98277.91
2022-11-12T16:56:32.809Z,98278.16
2022-11-12T16:58:59.332Z,98277.94
2022-11-12T17:01:32.400Z,98273.53
2022-11-12T17:03:58.923Z,98282.19
2022-11-12T17:06:32.921Z,98272.69
2022-11-12T17:08:59.229Z,98275.53
2022-11-12T17:11:25.680Z,98263.63
2022-11-12T17:13:52.000Z,98264.72
2022-11-12T17:16:18.410Z,98267.81
2022-11-12T17:18:44.770Z,98267.78
2022-11-12T17:21:15.750Z,98267.06
2022-11-12T17:23:42.323Z,98273.16
2022-11-12T17:26:12.950Z,98274.22
2022-11-12T17:28:39.337Z,98277.31
2022-11-12T17:31:07.365Z,98279.31
2022-11-12T17:33:37.513Z,98274.94
2022-11-12T17:36:04.583Z,98273.03
2022-11-12T17:38:32.950Z,98267.91
2022-11-12T17:40:59.331Z,98268.16
2022-11-12T17:43:26.949Z,98268.50
2022-11-12T17:45:54.234Z,98269.69
2022-11-12T17:48:20.809Z,98272.69
2022-11-12T17:50:47.805Z,98277.19
2022-11-12T17:53:16.176Z,98269.06
2022-11-12T17:55:42.543Z,98270.28
2022-11-12T17:58:09.666Z,98269.56
2022-11-12T18:00:38.043Z,98260.34
2022-11-12T18:03:04.416Z,98255.44
2022-11-12T18:05:30.745Z,98258.41
2022-11-12T18:07:57.060Z,98261.25
2022-11-12T18:10:23.391Z,98252.94
2022-11-12T18:12:50.983Z,98259.72
2022-11-12T18:15:17.416Z,98258.75
2022-11-12T18:17:43.825Z,98262.69
2022-11-12T18:20:10.295Z,98258.97
2022-11-12T18:22:42.143Z,98261.13
2022-11-12T18:25:12.738Z,98252.22
2022-11-12T18:27:48.038Z,98256.38
2022-11-12T18:30:19.143Z,98253.38
2022-11-12T18:32:45.875Z,98258.84
2022-11-12T18:35:12.209Z,98258.34
2022-11-12T18:37:38.521Z,98250.78
2022-11-12T18:40:05.010Z,98245.72
2022-11-12T18:42:32.830Z,98238.41
2022-11-12T18:44:59.306Z,98237.44
2022-11-12T18:47:25.606Z,98241.00
2022-11-12T18:49:51.946Z,98236.47
2022-11-12T18:52:21.527Z,98234.19
2022-11-12T18:54:47.924Z,98234.97
2022-11-12T18:57:18.388Z,98228.81
2022-11-12T18:59:44.814Z,98225.97
2022-11-12T19:02:11.700Z,98222.66
2022-11-12T19:04:44.000Z,98225.38
2022-11-12T19:07:11.650Z,98222.28
2022-11-12T19:09:39.302Z,98229.94
2022-11-12T19:12:05.815Z,98221.94
2022-11-12T19:14:32.302Z,98220.97
2022-11-12T19:17:01.919Z,98222.91
2022-11-12T19:19:28.239Z,98219.97
2022-11-12T19:21:54.677Z,98220.16
2022-11-12T19:24:21.015Z,98221.59
2022-11-12T19:26:48.938Z,98216.53
2022-11-12T19:29:16.352Z,98219.59
2022-11-12T19:31:42.735Z,98206.66
2022-11-12T19:34:11.106Z,98210.81
2022-11-12T19:36:37.418Z,98212.16
2022-11-12T19:39:03.986Z,98212.97
2022-11-12T19:41:30.331Z,98218.63
2022-11-12T19:43:56.659Z,98219.50
2022-11-12T19:46:23.053Z,98215.03
2022-11-12T19:48:49.402Z,98215.03
2022-11-12T19:51:15.767Z,98212.53
2022-11-12T19:53:46.047Z,98205.66
2022-11-12T19:56:17.221Z,98209.38
2022-11-12T19:58:47.174Z,98201.38
2022-11-12T20:01:26.916Z,98208.16
2022-11-12T20:03:53.313Z,98213.06
2022-11-12T20:06:20.683Z,98205.69
2022-11-12T20:08:47.350Z,98207.88
2022-11-12T20:11:16.087Z,98198.50
2022-11-12T20:13:44.720Z,98198.91
2022-11-12T20:16:16.764Z,98192.34
2022-11-12T20:18:50.843Z,98200.47
2022-11-12T20:21:17.927Z,98198.69
2022-11-12T20:23:51.210Z,98197.44
2022-11-12T20:26:17.652Z,98191.81
2022-11-12T20:28:44.013Z,98194.34
2022-11-12T20:31:20.575Z,98194.94
2022-11-12T20:33:47.599Z,98197.03
2022-11-12T20:36:21.168Z,98192.69
2022-11-12T20:38:50.331Z,98197.91
2022-11-12T20:41:18.102Z,98190.09
2022-11-12T20:43:44.534Z,98191.53
2022-11-12T20:46:11.289Z,98189.97
2022-11-12T20:48:43.074Z,98191.81
2022-11-12T20:51:24.578Z,98199.19
2022-11-12T20:54:00.673Z,98195.59
2022-11-12T20:56:30.458Z,98196.22
2022-11-12T20:58:59.468Z,98197.53
2022-11-12T21:01:26.701Z,98191.44
2022-11-12T21:03:56.058Z,98189.97
2022-11-12T21:06:24.553Z,98184.94
2022-11-12T21:08:51.026Z,98187.56
2022-11-12T21:11:19.765Z,98181.19
2022-11-12T21:13:46.351Z,98182.84
2022-11-12T21:16:19.844Z,98187.63
2022-11-12T21:18:46.343Z,98180.09
2022-11-12T21:21:21.173Z,98170.44
2022-11-12T21:23:58.332Z,98176.06
2022-11-12T21:26:36.233Z,98178.81
2022-11-12T21:29:04.820Z,98174.28
2022-11-12T21:31:39.263Z,98168.22
2022-11-12T21:34:06.970Z,98166.75
2022-11-12T21:36:35.381Z,98164.34
2022-11-12T21:39:04.624Z,98160.03
2022-11-12T21:41:34.114Z,98157.47
2022-11-12T21:44:00.423Z,98156.56
2022-11-12T21:46:29.227Z,98159.56
2022-11-12T21:48:56.160Z,98154.56
2022-11-12T21:51:26.807Z,98154.03
2022-11-12T21:53:57.158Z,98162.09
2022-11-12T21:56:27.968Z,98156.47
2022-11-12T21:58:59.292Z,98159.09
2022-11-12T22:01:27.179Z,98165.56
2022-11-12T22:03:54.305Z,98159.22
2022-11-12T22:06:29.609Z,98157.63
2022-11-12T22:08:59.181Z,98153.78
2022-11-12T22:11:25.999Z,98163.09
2022-11-12T22:13:52.392Z,98150.44
2022-11-12T22:16:21.180Z,98140.50
2022-11-12T22:18:48.592Z,98148.53
2022-11-12T22:21:16.396Z,98141.84
2022-11-12T22:23:42.795Z,98134.94
2022-11-12T22:26:13.816Z,98136.19
2022-11-12T22:28:42.262Z,98143.31
2022-11-12T22:31:15.614Z,98143.69
2022-11-12T22:33:42.066Z,98140.47
2022-11-12T22:36:09.551Z,98140.84
2022-11-12T22:38:37.095Z,98132.66
2022-11-12T22:41:05.692Z,98125.41
2022-11-12T22:43:32.693Z,98127.66
2022-11-12T22:46:10.738Z,98130.06
2022-11-12T22:48:42.066Z,98118.47
2022-11-12T22:51:15.878Z,98123.38
2022-11-12T22:53:46.800Z,98125.25
2022-11-12T22:56:15.094Z,98129.34
2022-11-12T22:58:42.643Z,98127.66
2022-11-12T23:01:20.028Z,98122.03
2022-11-12T23:03:46.688Z,98117.28
2022-11-12T23:06:13.114Z,98118.69
2022-11-12T23:08:39.768Z,98113.50
2022-11-12T23:11:07.472Z,98110.25
2022-11-12T23:13:34.515Z,98099.50
2022-11-12T23:16:01.096Z,98099.66
2022-11-12T23:18:27.626Z,98099.50
2022-11-12T23:20:54.214Z,98094.59
2022-11-12T23:23:20.614Z,98102.81
2022-11-12T23:25:47.046Z,98097.63
2022-11-12T23:28:13.482Z,98094.84
2022-11-12T23:30:39.785Z,98098.28
2022-11-12T23:33:06.094Z,98090.31
2022-11-12T23:35:32.467Z,98091.16
2022-11-12T23:37:58.783Z,98100.88
2022-11-12T23:40:30.576Z,98092.63
2022-11-12T23:42:57.355Z,98092.63
2022-11-12T23:45:23.747Z,98078.91
2022-11-12T23:47:50.268Z,98077.22
2022-11-12T23:50:16.639Z,98076.19
2022-11-12T23:52:43.038Z,98075.72
2022-11-12T23:55:09.441Z,98067.63
2022-11-12T23:57:35.852Z,98073.84
